createdAt,value
2019-03-08T00:02:08.846Z,1.25
2019-03-08T00:04:37.575Z,0.90
2019-03-08T00:07:06.295Z,1.27
2019-03-08T00:09:35.033Z,1.17
2019-03-08T00:12:03.793Z,1.10
2019-03-08T00:14:32.537Z,1.27
2019-03-08T00:17:02.317Z,1.10
2019-03-08T00:19:31.003Z,1.30
2019-03-08T00:22:02.623Z,1.10
2019-03-08T00:24:31.370Z,1.10
2019-03-08T00:27:00.331Z,1.10
2019-03-08T00:29:29.058Z,0.95
2019-03-08T00:31:57.790Z,1.30
2019-03-08T00:34:26.555Z,1.10
2019-03-08T00:36:55.281Z,1.00
2019-03-08T00:39:23.919Z,1.20
2019-03-08T00:41:53.073Z,1.60
2019-03-08T00:44:21.767Z,1.10
2019-03-08T00:46:50.535Z,1.12
2019-03-08T00:49:19.249Z,1.10
2019-03-08T00:51:48.018Z,1.20
2019-03-08T00:54:16.727Z,1.42
2019-03-08T00:56:45.668Z,1.30
2019-03-08T00:59:14.374Z,1.10
2019-03-08T01:01:43.164Z,1.40
2019-03-08T01:04:11.815Z,1.37
2019-03-08T01:06:40.559Z,1.35
2019-03-08T01:09:09.278Z,1.27
2019-03-08T01:11:40.789Z,1.00
2019-03-08T01:14:09.530Z,1.40
2019-03-08T01:16:38.270Z,1.12
2019-03-08T01:19:06.985Z,1.20
2019-03-08T01:21:35.682Z,1.05
2019-03-08T01:24:04.487Z,1.00
2019-03-08T01:26:33.212Z,1.10
2019-03-08T01:29:01.960Z,1.00
2019-03-08T01:31:30.683Z,1.10
2019-03-08T01:33:59.456Z,1.10
2019-03-08T01:36:28.176Z,0.90
2019-03-08T01:38:56.977Z,1.10
2019-03-08T01:41:25.755Z,1.22
2019-03-08T01:43:54.510Z,1.02
2019-03-08T01:46:23.165Z,0.95
2019-03-08T01:48:51.882Z,1.10
2019-03-08T01:51:20.570Z,1.17
2019-03-08T01:53:52.029Z,0.98
2019-03-08T01:56:20.781Z,0.82
2019-03-08T01:58:49.566Z,0.80
2019-03-08T02:01:18.278Z,1.00
2019-03-08T02:03:47.046Z,0.82
2019-03-08T02:06:16.114Z,0.98
2019-03-08T02:08:45.040Z,1.07
2019-03-08T02:11:13.875Z,0.95
2019-03-08T02:13:42.699Z,0.80
2019-03-08T02:16:11.389Z,0.90
2019-03-08T02:18:41.231Z,0.90
2019-03-08T02:21:11.462Z,0.98
2019-03-08T02:23:40.174Z,1.00
2019-03-08T02:26:09.026Z,0.82
2019-03-08T02:28:37.781Z,0.75
2019-03-08T02:31:06.542Z,0.85
2019-03-08T02:33:37.367Z,0.62
2019-03-08T02:36:06.126Z,0.62
2019-03-08T02:38:34.885Z,0.75
2019-03-08T02:41:03.663Z,0.60
2019-03-08T02:43:32.394Z,0.57
2019-03-08T02:46:01.059Z,0.70
2019-03-08T02:48:29.993Z,0.68
2019-03-08T02:50:58.912Z,0.80
2019-03-08T02:53:27.654Z,0.83
2019-03-08T02:55:56.330Z,0.93
2019-03-08T02:58:25.086Z,0.90
2019-03-08T03:00:53.817Z,0.85
2019-03-08T03:03:22.538Z,0.95
2019-03-08T03:05:51.507Z,1.17
2019-03-08T03:08:20.288Z,1.10
2019-03-08T03:10:49.017Z,0.90
2019-03-08T03:13:17.736Z,1.12
2019-03-08T03:15:46.489Z,1.00
2019-03-08T03:18:15.306Z,1.12
2019-03-08T03:20:43.952Z,0.90
2019-03-08T03:23:14.273Z,1.00
2019-03-08T03:25:42.944Z,1.02
2019-03-08T03:28:12.796Z,1.12
2019-03-08T03:30:41.507Z,0.90
2019-03-08T03:33:10.224Z,1.00
2019-03-08T03:35:38.975Z,1.07
2019-03-08T03:38:07.774Z,1.07
2019-03-08T03:40:36.472Z,1.20
2019-03-08T03:43:05.217Z,1.20
2019-03-08T03:45:33.959Z,1.20
2019-03-08T03:48:03.145Z,1.10
2019-03-08T03:50:31.878Z,1.15
2019-03-08T03:53:00.581Z,1.00
2019-03-08T03:55:29.228Z,1.07
2019-03-08T03:57:57.966Z,1.10
2019-03-08T04:00:26.740Z,1.05
2019-03-08T04:02:56.074Z,0.82
2019-03-08T04:05:24.814Z,0.80
2019-03-08T04:07:55.106Z,0.88
2019-03-08T04:10:23.899Z,0.90
2019-03-08T04:12:52.654Z,0.80
2019-03-08T04:15:21.436Z,0.90
2019-03-08T04:17:52.880Z,0.80
2019-03-08T04:20:21.595Z,0.88
2019-03-08T04:22:50.252Z,0.75
2019-03-08T04:25:19.950Z,0.50
2019-03-08T04:27:48.687Z,0.60
2019-03-08T04:30:17.454Z,0.83
2019-03-08T04:32:46.584Z,0.60
2019-03-08T04:35:15.314Z,0.93
2019-03-08T04:37:45.448Z,0.60
2019-03-08T04:40:14.261Z,0.80
2019-03-08T04:42:43.036Z,0.82
2019-03-08T04:45:12.078Z,0.70
2019-03-08T04:47:40.732Z,0.70
2019-03-08T04:50:10.118Z,0.90
2019-03-08T04:52:38.864Z,0.70
2019-03-08T04:55:08.663Z,0.90
2019-03-08T04:57:37.378Z,0.70
2019-03-08T05:00:06.414Z,0.93
2019-03-08T05:02:35.186Z,0.80
2019-03-08T05:05:04.324Z,0.85
2019-03-08T05:07:33.050Z,0.70
2019-03-08T05:10:01.753Z,0.70
2019-03-08T05:12:31.122Z,0.62
2019-03-08T05:15:01.163Z,0.72
2019-03-08T05:17:32.061Z,0.70
2019-03-08T05:20:01.751Z,0.60
2019-03-08T05:22:30.489Z,0.70
2019-03-08T05:24:59.242Z,0.80
2019-03-08T05:27:27.973Z,0.70
2019-03-08T05:29:56.714Z,0.80
2019-03-08T05:32:25.450Z,0.82
2019-03-08T05:34:54.203Z,0.80
2019-03-08T05:37:23.008Z,0.85
2019-03-08T05:39:51.708Z,0.70
2019-03-08T05:42:20.416Z,0.60
2019-03-08T05:44:49.152Z,0.70
2019-03-08T05:47:19.023Z,0.62
2019-03-08T05:49:47.763Z,0.77
2019-03-08T05:52:16.400Z,0.30
2019-03-08T05:54:45.167Z,0.60
2019-03-08T05:57:13.993Z,0.73
2019-03-08T05:59:42.741Z,0.42
2019-03-08T06:02:11.774Z,0.68
2019-03-08T06:04:40.517Z,0.60
2019-03-08T06:07:09.269Z,0.68
2019-03-08T06:09:38.047Z,0.68
2019-03-08T06:12:06.784Z,0.70
2019-03-08T06:14:35.542Z,0.70
2019-03-08T06:17:04.291Z,1.15
2019-03-08T06:19:33.023Z,0.85
2019-03-08T06:22:01.808Z,0.85
2019-03-08T06:24:30.692Z,0.88
2019-03-08T06:26:59.543Z,1.33
2019-03-08T06:29:28.502Z,1.00
2019-03-08T06:31:57.229Z,1.25
2019-03-08T06:34:25.970Z,1.10
2019-03-08T06:36:54.842Z,1.10
2019-03-08T06:39:23.584Z,1.32
2019-03-08T06:41:52.323Z,1.02
2019-03-08T06:44:21.335Z,1.50
2019-03-08T06:46:50.126Z,0.97
2019-03-08T06:49:18.851Z,1.30
2019-03-08T06:51:47.703Z,1.60
2019-03-08T06:54:17.527Z,1.20
2019-03-08T06:56:46.218Z,1.90
2019-03-08T06:59:34.174Z,1.22
2019-03-08T07:02:02.920Z,1.72
2019-03-08T07:04:31.634Z,1.30
2019-03-08T07:07:01.432Z,2.05
2019-03-08T07:09:30.404Z,1.80
2019-03-08T07:11:59.139Z,1.80
2019-03-08T07:14:27.873Z,2.17
2019-03-08T07:16:57.588Z,1.90
2019-03-08T07:19:29.212Z,1.87
2019-03-08T07:22:02.677Z,1.92
2019-03-08T07:24:49.084Z,2.47
2019-03-08T07:27:31.891Z,2.10
2019-03-08T07:30:28.755Z,2.55
2019-03-08T07:33:31.880Z,1.80
2019-03-08T07:36:12.631Z,1.82
2019-03-08T07:38:59.136Z,2.33
2019-03-08T07:41:35.763Z,2.40
2019-03-08T07:44:33.249Z,2.20
2019-03-08T07:47:07.974Z,2.72
2019-03-08T07:49:54.963Z,2.60
2019-03-08T07:52:33.494Z,2.70
2019-03-08T07:55:14.086Z,2.42
2019-03-08T07:58:00.882Z,2.40
2019-03-08T08:00:48.683Z,2.85
2019-03-08T08:03:42.119Z,3.43
2019-03-08T08:06:27.996Z,3.27
2019-03-08T08:09:15.830Z,3.10
2019-03-08T08:11:54.794Z,2.67
2019-03-08T08:14:46.744Z,3.12
2019-03-08T08:17:37.747Z,2.27
2019-03-08T08:20:27.636Z,2.42
2019-03-08T08:23:18.445Z,2.80
2019-03-08T08:26:06.311Z,2.47
2019-03-08T08:29:12.485Z,2.65
2019-03-08T08:32:00.455Z,2.10
2019-03-08T08:35:05.009Z,2.45
2019-03-08T08:37:42.488Z,2.40
2019-03-08T08:40:36.111Z,1.98
2019-03-08T08:43:23.874Z,2.02
2019-03-08T08:46:14.580Z,2.20
2019-03-08T08:49:02.678Z,2.30
2019-03-08T08:52:02.715Z,1.87
2019-03-08T08:54:53.579Z,2.07
2019-03-08T08:57:53.287Z,2.93
2019-03-08T09:00:31.546Z,2.33
2019-03-08T09:03:19.322Z,2.40
2019-03-08T09:05:56.446Z,2.47
2019-03-08T09:08:43.274Z,2.40
2019-03-08T09:11:43.812Z,2.30
2019-03-08T09:14:26.956Z,3.00
2019-03-08T09:17:13.083Z,2.40
2019-03-08T09:20:08.904Z,2.30
2019-03-08T09:22:47.442Z,2.45
2019-03-08T09:25:44.013Z,2.22
2019-03-08T09:28:22.568Z,2.00
2019-03-08T09:31:08.944Z,1.85
2019-03-08T09:33:46.714Z,1.95
2019-03-08T09:36:33.062Z,1.92
2019-03-08T09:39:11.300Z,2.05
2019-03-08T09:41:55.338Z,2.00
2019-03-08T09:44:42.359Z,2.20
2019-03-08T09:47:16.285Z,1.87
2019-03-08T09:50:02.966Z,1.62
2019-03-08T09:52:52.006Z,2.05
2019-03-08T09:55:52.150Z,2.00
2019-03-08T09:58:58.035Z,2.22
2019-03-08T10:01:44.781Z,1.40
2019-03-08T10:04:25.729Z,1.82
2019-03-08T10:07:15.954Z,1.80
2019-03-08T10:10:06.604Z,1.72
2019-03-08T10:12:54.539Z,2.50
2019-03-08T10:15:35.207Z,2.27
2019-03-08T10:18:13.656Z,1.70
2019-03-08T10:21:21.711Z,1.70
2019-03-08T10:24:09.377Z,1.70
2019-03-08T10:26:56.047Z,1.85
2019-03-08T10:29:46.634Z,2.00
2019-03-08T10:32:37.595Z,2.20
2019-03-08T10:35:34.073Z,2.02
2019-03-08T10:38:10.158Z,2.10
2019-03-08T10:40:56.452Z,2.05
2019-03-08T10:43:29.677Z,1.70
2019-03-08T10:46:20.488Z,1.85
2019-03-08T10:49:07.924Z,2.27
2019-03-08T10:51:53.044Z,2.12
2019-03-08T10:54:34.116Z,2.00
2019-03-08T10:57:15.861Z,2.25
2019-03-08T10:59:52.930Z,2.10
2019-03-08T11:02:39.551Z,2.65
2019-03-08T11:05:24.175Z,2.10
2019-03-08T11:08:29.340Z,1.72
2019-03-08T11:11:08.688Z,2.08
2019-03-08T11:14:02.645Z,2.02
2019-03-08T11:16:50.448Z,1.92
2019-03-08T11:19:31.320Z,2.17
2019-03-08T11:22:37.143Z,1.72
2019-03-08T11:25:24.979Z,1.98
2019-03-08T11:28:20.993Z,1.60
2019-03-08T11:31:08.446Z,1.83
2019-03-08T11:33:58.937Z,1.60
2019-03-08T11:36:36.878Z,2.02
2019-03-08T11:39:30.160Z,2.55
2019-03-08T11:42:10.484Z,1.77
2019-03-08T11:45:04.093Z,1.67
2019-03-08T11:48:02.060Z,2.25
2019-03-08T11:50:37.501Z,2.00
2019-03-08T11:53:18.156Z,2.30
2019-03-08T11:56:06.016Z,1.98
2019-03-08T11:58:57.149Z,2.00
2019-03-08T12:01:44.051Z,2.35
2019-03-08T12:04:32.998Z,2.23
2019-03-08T12:07:10.850Z,2.00
2019-03-08T12:10:16.984Z,1.62
2019-03-08T12:13:07.352Z,2.05
2019-03-08T12:15:45.835Z,1.75
2019-03-08T12:18:23.937Z,1.80
2019-03-08T12:21:10.457Z,2.17
2019-03-08T12:23:56.829Z,1.90
2019-03-08T12:26:57.023Z,1.60
2019-03-08T12:29:50.764Z,2.10
2019-03-08T12:32:34.086Z,1.80
2019-03-08T12:35:30.958Z,2.00
2019-03-08T12:38:26.955Z,1.95
2019-03-08T12:41:08.104Z,2.05
2019-03-08T12:44:04.900Z,1.90
2019-03-08T12:46:58.901Z,2.02
2019-03-08T12:50:06.050Z,1.80
2019-03-08T12:52:59.576Z,1.60
2019-03-08T12:55:36.673Z,1.60
2019-03-08T12:58:33.636Z,1.98
2019-03-08T13:01:15.256Z,1.85
2019-03-08T13:03:55.127Z,1.52
2019-03-08T13:06:45.824Z,1.90
2019-03-08T13:09:36.621Z,1.70
2019-03-08T13:12:05.324Z,1.98
2019-03-08T13:14:34.363Z,1.80
2019-03-08T13:17:03.235Z,1.50
2019-03-08T13:19:31.949Z,1.52
2019-03-08T13:22:00.728Z,1.55
2019-03-08T13:24:29.499Z,1.20
2019-03-08T13:26:58.385Z,1.12
2019-03-08T13:29:27.196Z,1.32
2019-03-08T13:31:56.057Z,1.90
2019-03-08T13:34:24.824Z,1.15
2019-03-08T13:36:53.593Z,1.50
2019-03-08T13:39:22.444Z,1.25
2019-03-08T13:41:51.277Z,1.20
2019-03-08T13:44:20.152Z,1.40
2019-03-08T13:46:51.923Z,1.50
2019-03-08T13:49:21.136Z,1.20
2019-03-08T13:51:49.892Z,1.42
2019-03-08T13:54:18.670Z,1.45
2019-03-08T13:56:47.351Z,1.90
2019-03-08T13:59:16.114Z,1.42
2019-03-08T14:01:44.774Z,1.72
2019-03-08T14:04:13.823Z,1.35
2019-03-08T14:06:42.644Z,1.52
2019-03-08T14:09:12.449Z,1.00
2019-03-08T14:11:41.248Z,1.25
2019-03-08T14:14:10.112Z,1.30
2019-03-08T14:16:38.935Z,1.37
2019-03-08T14:19:07.714Z,1.37
2019-03-08T14:21:36.472Z,1.47
2019-03-08T14:24:05.243Z,1.70
2019-03-08T14:26:35.047Z,1.57
2019-03-08T14:29:05.880Z,1.20
2019-03-08T14:31:49.298Z,1.67
2019-03-08T14:34:17.081Z,1.67
2019-03-08T14:36:46.477Z,1.60
2019-03-08T14:39:15.338Z,1.60
2019-03-08T14:42:04.087Z,1.07
2019-03-08T14:45:07.688Z,1.70
2019-03-08T14:47:40.404Z,1.70
2019-03-08T14:50:10.303Z,1.35
2019-03-08T14:52:40.112Z,1.00
2019-03-08T14:55:10.203Z,1.20
2019-03-08T14:57:38.979Z,1.50
2019-03-08T15:00:09.655Z,1.17
2019-03-08T15:02:38.451Z,1.22
2019-03-08T15:05:11.231Z,1.15
2019-03-08T15:07:41.154Z,1.27
2019-03-08T15:10:08.317Z,1.47
2019-03-08T15:12:48.313Z,1.15
2019-03-08T15:15:11.324Z,1.52
2019-03-08T15:17:38.592Z,1.55
2019-03-08T15:20:14.844Z,1.55
2019-03-08T15:22:39.420Z,1.67
2019-03-08T15:25:12.544Z,1.20
2019-03-08T15:27:40.174Z,1.30
2019-03-08T15:30:10.672Z,1.47
2019-03-08T15:32:39.417Z,1.67
2019-03-08T15:35:08.994Z,1.82
2019-03-08T15:37:44.334Z,1.45
2019-03-08T15:40:09.434Z,1.57
2019-03-08T15:42:38.257Z,1.70
2019-03-08T15:45:07.298Z,1.90
2019-03-08T15:47:37.385Z,1.57
2019-03-08T15:50:08.419Z,1.35
2019-03-08T15:52:37.928Z,1.77
2019-03-08T15:55:06.793Z,1.47
2019-03-08T15:57:35.550Z,1.62
2019-03-08T16:00:04.969Z,1.90
2019-03-08T16:02:34.282Z,2.00
2019-03-08T16:05:04.046Z,1.40
2019-03-08T16:07:32.810Z,1.77
2019-03-08T16:10:01.580Z,1.52
2019-03-08T16:12:31.902Z,1.70
2019-03-08T16:15:01.038Z,1.57
2019-03-08T16:17:30.980Z,1.10
2019-03-08T16:20:02.815Z,0.98
2019-03-08T16:22:30.226Z,1.37
2019-03-08T16:24:58.929Z,1.07
2019-03-08T16:27:27.782Z,1.47
2019-03-08T16:29:56.386Z,1.22
2019-03-08T16:32:34.509Z,1.10
2019-03-08T16:35:03.977Z,1.35
2019-03-08T16:37:49.028Z,1.15
2019-03-08T16:40:29.965Z,1.25
2019-03-08T16:43:20.781Z,1.50
2019-03-08T16:46:01.479Z,1.40
2019-03-08T16:48:47.809Z,1.50
2019-03-08T16:51:41.879Z,1.35
2019-03-08T16:54:38.447Z,1.40
2019-03-08T16:57:26.210Z,1.10
2019-03-08T17:00:26.135Z,1.70
2019-03-08T17:03:23.160Z,2.37
2019-03-08T17:06:14.216Z,1.70
2019-03-08T17:09:10.997Z,1.62
2019-03-08T17:11:56.259Z,1.35
2019-03-08T17:14:44.048Z,1.27
2019-03-08T17:17:24.450Z,0.90
2019-03-08T17:20:21.881Z,1.15
2019-03-08T17:22:57.978Z,1.10
2019-03-08T17:25:33.746Z,1.30
2019-03-08T17:28:14.536Z,0.98
2019-03-08T17:30:49.401Z,1.12
2019-03-08T17:33:37.156Z,1.30
2019-03-08T17:36:33.996Z,1.30
2019-03-08T17:39:30.639Z,1.10
2019-03-08T17:42:20.976Z,0.93
2019-03-08T17:45:14.509Z,1.07
2019-03-08T17:48:05.060Z,1.15
2019-03-08T17:50:56.457Z,1.27
2019-03-08T17:53:47.263Z,1.10
2019-03-08T17:56:27.471Z,1.20
2019-03-08T17:59:07.539Z,1.37
2019-03-08T18:01:57.247Z,1.37
2019-03-08T18:04:43.843Z,1.22
2019-03-08T18:07:28.308Z,1.50
2019-03-08T18:10:21.961Z,1.30
2019-03-08T18:13:08.831Z,1.82
2019-03-08T18:15:56.065Z,1.27
2019-03-08T18:18:49.908Z,1.35
2019-03-08T18:21:41.595Z,1.22
2019-03-08T18:24:28.124Z,1.55
2019-03-08T18:27:31.232Z,1.30
2019-03-08T18:30:17.978Z,1.47
2019-03-08T18:33:14.972Z,1.30
2019-03-08T18:35:53.662Z,1.62
2019-03-08T18:38:36.942Z,1.80
2019-03-08T18:41:11.110Z,1.10
2019-03-08T18:43:59.325Z,1.40
2019-03-08T18:46:45.924Z,1.30
2019-03-08T18:49:24.498Z,1.50
2019-03-08T18:52:12.410Z,1.80
2019-03-08T18:54:51.310Z,1.67
2019-03-08T18:57:29.170Z,1.82
2019-03-08T19:00:19.931Z,1.52
2019-03-08T19:03:10.900Z,1.75
2019-03-08T19:06:01.996Z,1.95
2019-03-08T19:08:53.055Z,1.60
2019-03-08T19:11:38.730Z,1.55
2019-03-08T19:14:44.682Z,1.87
2019-03-08T19:17:32.949Z,1.90
2019-03-08T19:20:26.530Z,2.08
2019-03-08T19:23:23.686Z,2.30
2019-03-08T19:26:02.915Z,1.65
2019-03-08T19:28:59.784Z,2.30
2019-03-08T19:31:50.327Z,2.22
2019-03-08T19:34:32.039Z,1.80
2019-03-08T19:37:28.844Z,2.33
2019-03-08T19:40:22.706Z,2.10
2019-03-08T19:43:19.846Z,2.33
2019-03-08T19:46:11.680Z,2.02
2019-03-08T19:49:04.822Z,1.77
2019-03-08T19:51:41.104Z,1.80
2019-03-08T19:54:20.924Z,2.00
2019-03-08T19:57:07.301Z,1.80
2019-03-08T19:59:53.631Z,1.80
2019-03-08T20:02:53.597Z,1.82
2019-03-08T20:05:33.620Z,2.22
2019-03-08T20:08:16.960Z,1.98
2019-03-08T20:11:23.023Z,2.35
2019-03-08T20:14:09.603Z,1.75
2019-03-08T20:16:56.223Z,2.02
2019-03-08T20:19:38.487Z,2.33
2019-03-08T20:22:14.568Z,2.52
2019-03-08T20:25:02.482Z,1.65
2019-03-08T20:27:49.255Z,2.08
2019-03-08T20:30:38.511Z,2.25
2019-03-08T20:33:24.968Z,1.82
2019-03-08T20:36:11.339Z,1.70
2019-03-08T20:39:05.248Z,1.60
2019-03-08T20:41:55.830Z,2.10
2019-03-08T20:44:49.846Z,2.00
2019-03-08T20:47:22.114Z,1.92
2019-03-08T20:49:50.951Z,2.17
2019-03-08T20:52:19.826Z,1.92
2019-03-08T20:54:48.590Z,2.45
2019-03-08T20:57:17.395Z,1.80
2019-03-08T20:59:46.135Z,2.22
2019-03-08T21:02:14.950Z,1.85
2019-03-08T21:04:43.785Z,2.12
2019-03-08T21:07:12.495Z,2.10
2019-03-08T21:09:41.343Z,1.80
2019-03-08T21:12:11.184Z,2.30
2019-03-08T21:14:39.958Z,1.37
2019-03-08T21:17:08.721Z,2.12
2019-03-08T21:19:37.724Z,1.98
2019-03-08T21:22:06.447Z,1.70
2019-03-08T21:24:35.200Z,1.82
2019-03-08T21:27:03.918Z,1.80
2019-03-08T21:29:32.756Z,1.95
2019-03-08T21:32:01.500Z,1.90
2019-03-08T21:34:30.375Z,2.00
2019-03-08T21:36:59.201Z,1.40
2019-03-08T21:39:27.930Z,1.75
2019-03-08T21:41:56.796Z,1.80
2019-03-08T21:44:25.603Z,1.50
2019-03-08T21:46:54.317Z,2.02
2019-03-08T21:49:23.058Z,1.98
2019-03-08T21:51:52.331Z,1.98
2019-03-08T21:54:21.177Z,1.92
2019-03-08T21:56:49.900Z,1.62
2019-03-08T21:59:18.985Z,1.50
2019-03-08T22:01:47.752Z,2.20
2019-03-08T22:04:47.829Z,1.62
2019-03-08T22:07:16.777Z,1.82
2019-03-08T22:09:53.649Z,1.95
2019-03-08T22:12:22.418Z,1.80
2019-03-08T22:14:51.176Z,1.50
2019-03-08T22:17:20.984Z,2.00
2019-03-08T22:19:49.799Z,1.60
2019-03-08T22:22:18.497Z,1.62
2019-03-08T22:24:48.307Z,2.20
2019-03-08T22:27:17.102Z,2.10
2019-03-08T22:29:45.794Z,2.02
2019-03-08T22:32:14.891Z,1.90
2019-03-08T22:34:43.661Z,2.10
2019-03-08T22:37:12.470Z,2.08
2019-03-08T22:39:41.208Z,2.30
2019-03-08T22:42:09.927Z,2.17
2019-03-08T22:44:38.915Z,2.12
2019-03-08T22:47:07.620Z,2.35
2019-03-08T22:49:36.365Z,2.25
2019-03-08T22:52:05.079Z,1.75
2019-03-08T22:54:33.887Z,2.00
2019-03-08T22:57:02.586Z,1.82
2019-03-08T22:59:31.298Z,1.95
2019-03-08T23:02:04.193Z,2.08
2019-03-08T23:04:32.947Z,2.12
2019-03-08T23:07:01.719Z,1.87
2019-03-08T23:09:30.461Z,1.80
2019-03-08T23:11:59.210Z,2.40
2019-03-08T23:14:27.870Z,1.80
2019-03-08T23:16:56.637Z,1.95
2019-03-08T23:19:25.354Z,1.75
2019-03-08T23:21:54.036Z,2.05
2019-03-08T23:24:22.990Z,2.02
2019-03-08T23:27:09.530Z,2.30
2019-03-08T23:29:42.558Z,1.85
2019-03-08T23:32:15.993Z,2.22
2019-03-08T23:34:44.734Z,2.35
2019-03-08T23:37:13.452Z,1.85
2019-03-08T23:39:42.268Z,2.20
2019-03-08T23:42:12.058Z,2.10
2019-03-08T23:44:40.892Z,2.00
2019-03-08T23:47:09.695Z,1.98
2019-03-08T23:49:38.498Z,2.25
2019-03-08T23:52:07.246Z,2.20
2019-03-08T23:54:35.993Z,2.27
2019-03-08T23:57:04.785Z,2.60
2019-03-08T23:59:33.518Z,2.33
